sensor_id;sensor_type;location;lat;lon;timestamp;P1;durP1;ratioP1;P2;durP2;ratioP2
33993;SDS011;20673;48.980;8.138;2023-07-24T00:02:07;10.30;;;5.20;;
33993;SDS011;20673;48.980;8.138;2023-07-24T00:04:33;8.05;;;5.85;;
33993;SDS011;20673;48.980;8.138;2023-07-24T00:06:59;7.25;;;5.60;;
33993;SDS011;20673;48.980;8.138;2023-07-24T00:09:26;6.92;;;5.53;;
33993;SDS011;20673;48.980;8.138;2023-07-24T00:11:52;8.20;;;5.90;;
33993;SDS011;20673;48.980;8.138;2023-07-24T00:14:19;8.70;;;5.93;;
33993;SDS011;20673;48.980;8.138;2023-07-24T00:16:45;8.20;;;5.37;;
33993;SDS011;20673;48.980;8.138;2023-07-24T00:19:11;8.85;;;5.40;;
33993;SDS011;20673;48.980;8.138;2023-07-24T00:21:37;8.30;;;5.73;;
33993;SDS011;20673;48.980;8.138;2023-07-24T00:24:03;8.50;;;5.97;;
33993;SDS011;20673;48.980;8.138;2023-07-24T00:26:30;7.77;;;5.87;;
33993;SDS011;20673;48.980;8.138;2023-07-24T00:28:56;7.67;;;5.20;;
33993;SDS011;20673;48.980;8.138;2023-07-24T00:31:22;8.75;;;6.53;;
33993;SDS011;20673;48.980;8.138;2023-07-24T00:33:48;8.80;;;6.12;;
33993;SDS011;20673;48.980;8.138;2023-07-24T00:36:14;7.83;;;5.23;;
33993;SDS011;20673;48.980;8.138;2023-07-24T00:38:40;8.43;;;5.57;;
33993;SDS011;20673;48.980;8.138;2023-07-24T00:41:06;8.00;;;5.77;;
33993;SDS011;20673;48.980;8.138;2023-07-24T00:43:32;7.93;;;5.30;;
33993;SDS011;20673;48.980;8.138;2023-07-24T00:45:58;7.10;;;5.63;;
33993;SDS011;20673;48.980;8.138;2023-07-24T00:48:24;8.63;;;6.20;;
33993;SDS011;20673;48.980;8.138;2023-07-24T00:50:51;7.03;;;5.60;;
33993;SDS011;20673;48.980;8.138;2023-07-24T00:53:17;8.03;;;5.60;;
33993;SDS011;20673;48.980;8.138;2023-07-24T00:55:45;6.80;;;5.17;;
33993;SDS011;20673;48.980;8.138;2023-07-24T00:58:12;7.00;;;5.40;;
33993;SDS011;20673;48.980;8.138;2023-07-24T01:00:39;8.27;;;5.60;;
33993;SDS011;20673;48.980;8.138;2023-07-24T01:03:06;8.67;;;6.23;;
33993;SDS011;20673;48.980;8.138;2023-07-24T01:05:33;9.10;;;6.33;;
33993;SDS011;20673;48.980;8.138;2023-07-24T01:07:59;8.27;;;6.30;;
33993;SDS011;20673;48.980;8.138;2023-07-24T01:10:25;9.17;;;6.07;;
33993;SDS011;20673;48.980;8.138;2023-07-24T01:13:36;8.97;;;6.03;;
33993;SDS011;20673;48.980;8.138;2023-07-24T01:15:33;12.77;;;6.37;;
33993;SDS011;20673;48.980;8.138;2023-07-24T01:18:06;7.83;;;5.23;;
33993;SDS011;20673;48.980;8.138;2023-07-24T01:20:37;7.90;;;6.17;;
33993;SDS011;20673;48.980;8.138;2023-07-24T01:25:55;8.53;;;5.87;;
33993;SDS011;20673;48.980;8.138;2023-07-24T01:28:27;8.58;;;5.65;;
33993;SDS011;20673;48.980;8.138;2023-07-24T01:30:54;6.72;;;5.37;;
33993;SDS011;20673;48.980;8.138;2023-07-24T01:33:22;12.03;;;6.23;;
33993;SDS011;20673;48.980;8.138;2023-07-24T01:35:57;7.33;;;5.73;;
33993;SDS011;20673;48.980;8.138;2023-07-24T01:38:26;9.38;;;6.00;;
33993;SDS011;20673;48.980;8.138;2023-07-24T01:40:53;8.80;;;5.70;;
33993;SDS011;20673;48.980;8.138;2023-07-24T01:43:21;10.83;;;6.00;;
33993;SDS011;20673;48.980;8.138;2023-07-24T01:45:48;7.00;;;4.93;;
33993;SDS011;20673;48.980;8.138;2023-07-24T01:48:14;8.20;;;6.17;;
33993;SDS011;20673;48.980;8.138;2023-07-24T01:50:40;8.30;;;6.27;;
33993;SDS011;20673;48.980;8.138;2023-07-24T01:53:06;8.23;;;5.43;;
33993;SDS011;20673;48.980;8.138;2023-07-24T01:55:33;9.13;;;6.50;;
33993;SDS011;20673;48.980;8.138;2023-07-24T01:57:59;11.80;;;6.53;;
33993;SDS011;20673;48.980;8.138;2023-07-24T02:00:25;7.77;;;6.00;;
33993;SDS011;20673;48.980;8.138;2023-07-24T02:02:51;7.63;;;6.13;;
33993;SDS011;20673;48.980;8.138;2023-07-24T02:05:17;8.67;;;6.00;;
33993;SDS011;20673;48.980;8.138;2023-07-24T02:07:43;8.33;;;5.77;;
33993;SDS011;20673;48.980;8.138;2023-07-24T02:10:09;10.00;;;6.67;;
33993;SDS011;20673;48.980;8.138;2023-07-24T02:12:35;8.80;;;5.97;;
33993;SDS011;20673;48.980;8.138;2023-07-24T02:15:02;9.60;;;6.40;;
33993;SDS011;20673;48.980;8.138;2023-07-24T02:17:28;8.63;;;5.90;;
33993;SDS011;20673;48.980;8.138;2023-07-24T02:19:54;7.93;;;5.30;;
33993;SDS011;20673;48.980;8.138;2023-07-24T02:22:20;8.60;;;6.33;;
33993;SDS011;20673;48.980;8.138;2023-07-24T02:24:46;8.50;;;5.90;;
33993;SDS011;20673;48.980;8.138;2023-07-24T02:27:13;10.13;;;6.17;;
33993;SDS011;20673;48.980;8.138;2023-07-24T02:29:41;9.17;;;5.57;;
33993;SDS011;20673;48.980;8.138;2023-07-24T02:32:07;9.00;;;6.40;;
33993;SDS011;20673;48.980;8.138;2023-07-24T02:34:33;8.63;;;6.60;;
33993;SDS011;20673;48.980;8.138;2023-07-24T02:36:59;10.10;;;6.90;;
33993;SDS011;20673;48.980;8.138;2023-07-24T02:39:25;7.63;;;5.43;;
33993;SDS011;20673;48.980;8.138;2023-07-24T02:41:51;8.67;;;6.40;;
33993;SDS011;20673;48.980;8.138;2023-07-24T02:44:17;10.20;;;6.40;;
33993;SDS011;20673;48.980;8.138;2023-07-24T02:46:43;9.23;;;6.50;;
33993;SDS011;20673;48.980;8.138;2023-07-24T02:49:09;8.40;;;5.73;;
33993;SDS011;20673;48.980;8.138;2023-07-24T02:51:36;9.13;;;5.87;;
33993;SDS011;20673;48.980;8.138;2023-07-24T02:54:02;8.60;;;6.07;;
33993;SDS011;20673;48.980;8.138;2023-07-24T02:56:28;10.90;;;6.10;;
33993;SDS011;20673;48.980;8.138;2023-07-24T02:58:54;10.17;;;6.60;;
33993;SDS011;20673;48.980;8.138;2023-07-24T03:01:20;8.73;;;6.03;;
33993;SDS011;20673;48.980;8.138;2023-07-24T03:03:46;9.13;;;6.13;;
33993;SDS011;20673;48.980;8.138;2023-07-24T03:06:12;10.60;;;6.40;;
33993;SDS011;20673;48.980;8.138;2023-07-24T03:08:38;9.47;;;6.00;;
33993;SDS011;20673;48.980;8.138;2023-07-24T03:11:04;11.03;;;7.03;;
33993;SDS011;20673;48.980;8.138;2023-07-24T03:13:31;8.83;;;6.30;;
33993;SDS011;20673;48.980;8.138;2023-07-24T03:15:58;7.43;;;5.47;;
33993;SDS011;20673;48.980;8.138;2023-07-24T03:18:24;8.75;;;6.17;;
33993;SDS011;20673;48.980;8.138;2023-07-24T03:20:51;10.80;;;6.67;;
33993;SDS011;20673;48.980;8.138;2023-07-24T03:23:17;8.23;;;5.50;;
33993;SDS011;20673;48.980;8.138;2023-07-24T03:25:43;8.80;;;6.47;;
33993;SDS011;20673;48.980;8.138;2023-07-24T03:28:09;7.93;;;5.90;;
33993;SDS011;20673;48.980;8.138;2023-07-24T03:30:35;10.03;;;7.03;;
33993;SDS011;20673;48.980;8.138;2023-07-24T03:33:02;12.00;;;6.90;;
33993;SDS011;20673;48.980;8.138;2023-07-24T03:35:28;9.90;;;6.37;;
33993;SDS011;20673;48.980;8.138;2023-07-24T03:37:54;8.43;;;6.10;;
33993;SDS011;20673;48.980;8.138;2023-07-24T03:40:20;9.60;;;7.10;;
33993;SDS011;20673;48.980;8.138;2023-07-24T03:42:46;9.40;;;5.80;;
33993;SDS011;20673;48.980;8.138;2023-07-24T03:45:12;9.93;;;5.57;;
33993;SDS011;20673;48.980;8.138;2023-07-24T03:47:39;8.87;;;6.63;;
33993;SDS011;20673;48.980;8.138;2023-07-24T03:50:05;10.30;;;6.47;;
33993;SDS011;20673;48.980;8.138;2023-07-24T03:52:32;9.30;;;6.30;;
33993;SDS011;20673;48.980;8.138;2023-07-24T03:54:58;10.27;;;6.60;;
33993;SDS011;20673;48.980;8.138;2023-07-24T03:57:24;9.87;;;6.57;;
33993;SDS011;20673;48.980;8.138;2023-07-24T03:59:50;8.70;;;5.93;;
33993;SDS011;20673;48.980;8.138;2023-07-24T04:02:16;9.07;;;6.20;;
33993;SDS011;20673;48.980;8.138;2023-07-24T04:04:42;9.27;;;5.90;;
33993;SDS011;20673;48.980;8.138;2023-07-24T04:07:09;9.10;;;6.70;;
33993;SDS011;20673;48.980;8.138;2023-07-24T04:09:35;8.90;;;6.10;;
33993;SDS011;20673;48.980;8.138;2023-07-24T04:12:01;9.30;;;6.27;;
33993;SDS011;20673;48.980;8.138;2023-07-24T04:14:27;9.95;;;6.47;;
33993;SDS011;20673;48.980;8.138;2023-07-24T04:16:53;9.47;;;6.33;;
33993;SDS011;20673;48.980;8.138;2023-07-24T04:19:20;10.70;;;6.53;;
33993;SDS011;20673;48.980;8.138;2023-07-24T04:21:46;9.13;;;5.97;;
33993;SDS011;20673;48.980;8.138;2023-07-24T04:24:13;8.68;;;6.17;;
33993;SDS011;20673;48.980;8.138;2023-07-24T04:26:39;10.07;;;6.83;;
33993;SDS011;20673;48.980;8.138;2023-07-24T04:29:05;9.63;;;6.20;;
33993;SDS011;20673;48.980;8.138;2023-07-24T04:31:32;7.92;;;5.70;;
33993;SDS011;20673;48.980;8.138;2023-07-24T04:33:58;11.23;;;6.47;;
33993;SDS011;20673;48.980;8.138;2023-07-24T04:36:25;11.60;;;7.10;;
33993;SDS011;20673;48.980;8.138;2023-07-24T04:38:51;8.63;;;6.40;;
33993;SDS011;20673;48.980;8.138;2023-07-24T04:41:17;9.48;;;6.85;;
33993;SDS011;20673;48.980;8.138;2023-07-24T04:43:43;10.57;;;6.93;;
33993;SDS011;20673;48.980;8.138;2023-07-24T04:46:09;10.80;;;6.50;;
33993;SDS011;20673;48.980;8.138;2023-07-24T04:48:35;10.43;;;6.80;;
33993;SDS011;20673;48.980;8.138;2023-07-24T04:51:01;9.15;;;6.87;;
33993;SDS011;20673;48.980;8.138;2023-07-24T04:53:28;9.17;;;6.13;;
33993;SDS011;20673;48.980;8.138;2023-07-24T04:55:54;8.73;;;6.35;;
33993;SDS011;20673;48.980;8.138;2023-07-24T04:58:20;9.57;;;6.70;;
33993;SDS011;20673;48.980;8.138;2023-07-24T05:00:46;10.17;;;6.90;;
33993;SDS011;20673;48.980;8.138;2023-07-24T05:03:12;11.87;;;7.33;;
33993;SDS011;20673;48.980;8.138;2023-07-24T05:05:38;10.17;;;7.90;;
33993;SDS011;20673;48.980;8.138;2023-07-24T05:08:04;10.37;;;7.40;;
33993;SDS011;20673;48.980;8.138;2023-07-24T05:10:36;10.63;;;7.50;;
33993;SDS011;20673;48.980;8.138;2023-07-24T05:13:03;9.77;;;6.83;;
33993;SDS011;20673;48.980;8.138;2023-07-24T05:15:29;9.47;;;6.70;;
33993;SDS011;20673;48.980;8.138;2023-07-24T05:17:55;14.40;;;7.80;;
33993;SDS011;20673;48.980;8.138;2023-07-24T05:20:21;9.27;;;7.20;;
33993;SDS011;20673;48.980;8.138;2023-07-24T05:22:47;12.87;;;8.87;;
33993;SDS011;20673;48.980;8.138;2023-07-24T05:25:13;11.63;;;8.00;;
33993;SDS011;20673;48.980;8.138;2023-07-24T05:27:40;11.78;;;8.03;;
33993;SDS011;20673;48.980;8.138;2023-07-24T05:30:06;10.50;;;7.70;;
33993;SDS011;20673;48.980;8.138;2023-07-24T05:32:33;10.63;;;7.80;;
33993;SDS011;20673;48.980;8.138;2023-07-24T05:34:59;10.23;;;7.70;;
33993;SDS011;20673;48.980;8.138;2023-07-24T05:37:25;15.97;;;9.20;;
33993;SDS011;20673;48.980;8.138;2023-07-24T05:39:51;16.80;;;9.58;;
33993;SDS011;20673;48.980;8.138;2023-07-24T05:42:17;12.63;;;8.93;;
33993;SDS011;20673;48.980;8.138;2023-07-24T05:44:43;16.75;;;9.30;;
33993;SDS011;20673;48.980;8.138;2023-07-24T05:47:09;13.25;;;9.93;;
33993;SDS011;20673;48.980;8.138;2023-07-24T05:49:35;14.07;;;8.80;;
33993;SDS011;20673;48.980;8.138;2023-07-24T05:52:01;17.10;;;9.80;;
33993;SDS011;20673;48.980;8.138;2023-07-24T05:54:27;14.50;;;9.43;;
33993;SDS011;20673;48.980;8.138;2023-07-24T05:56:53;13.93;;;9.57;;
33993;SDS011;20673;48.980;8.138;2023-07-24T05:59:19;15.13;;;8.85;;
33993;SDS011;20673;48.980;8.138;2023-07-24T06:01:45;15.30;;;9.33;;
33993;SDS011;20673;48.980;8.138;2023-07-24T06:04:11;14.27;;;9.67;;
33993;SDS011;20673;48.980;8.138;2023-07-24T06:06:37;11.87;;;8.53;;
33993;SDS011;20673;48.980;8.138;2023-07-24T06:09:04;11.70;;;8.73;;
33993;SDS011;20673;48.980;8.138;2023-07-24T06:11:30;10.73;;;8.03;;
33993;SDS011;20673;48.980;8.138;2023-07-24T06:13:56;13.53;;;9.23;;
33993;SDS011;20673;48.980;8.138;2023-07-24T06:16:22;11.87;;;8.80;;
33993;SDS011;20673;48.980;8.138;2023-07-24T06:18:48;11.97;;;8.93;;
33993;SDS011;20673;48.980;8.138;2023-07-24T06:21:14;16.97;;;10.45;;
33993;SDS011;20673;48.980;8.138;2023-07-24T06:23:40;13.13;;;9.33;;
33993;SDS011;20673;48.980;8.138;2023-07-24T06:26:06;14.10;;;8.97;;
33993;SDS011;20673;48.980;8.138;2023-07-24T06:28:32;11.27;;;8.57;;
33993;SDS011;20673;48.980;8.138;2023-07-24T06:30:59;14.50;;;8.60;;
33993;SDS011;20673;48.980;8.138;2023-07-24T06:33:25;12.13;;;8.50;;
33993;SDS011;20673;48.980;8.138;2023-07-24T06:35:51;15.65;;;9.93;;
33993;SDS011;20673;48.980;8.138;2023-07-24T06:38:17;16.47;;;9.43;;
33993;SDS011;20673;48.980;8.138;2023-07-24T06:40:43;12.23;;;8.73;;
33993;SDS011;20673;48.980;8.138;2023-07-24T06:43:09;12.25;;;8.88;;
33993;SDS011;20673;48.980;8.138;2023-07-24T06:45:35;13.85;;;9.00;;
33993;SDS011;20673;48.980;8.138;2023-07-24T06:48:01;12.58;;;9.23;;
33993;SDS011;20673;48.980;8.138;2023-07-24T06:50:28;13.45;;;10.00;;
33993;SDS011;20673;48.980;8.138;2023-07-24T06:52:54;14.98;;;9.35;;
33993;SDS011;20673;48.980;8.138;2023-07-24T06:55:20;13.55;;;9.28;;
33993;SDS011;20673;48.980;8.138;2023-07-24T06:57:46;14.13;;;9.00;;
33993;SDS011;20673;48.980;8.138;2023-07-24T07:00:13;13.48;;;9.55;;
33993;SDS011;20673;48.980;8.138;2023-07-24T07:02:39;12.25;;;8.93;;
33993;SDS011;20673;48.980;8.138;2023-07-24T07:05:06;14.53;;;10.53;;
33993;SDS011;20673;48.980;8.138;2023-07-24T07:07:32;13.80;;;9.35;;
33993;SDS011;20673;48.980;8.138;2023-07-24T07:09:58;15.32;;;9.78;;
33993;SDS011;20673;48.980;8.138;2023-07-24T07:12:24;14.30;;;9.90;;
33993;SDS011;20673;48.980;8.138;2023-07-24T07:14:51;16.75;;;9.98;;
33993;SDS011;20673;48.980;8.138;2023-07-24T07:17:17;12.65;;;9.25;;
33993;SDS011;20673;48.980;8.138;2023-07-24T07:19:43;14.75;;;10.13;;
33993;SDS011;20673;48.980;8.138;2023-07-24T07:22:09;12.80;;;10.07;;
33993;SDS011;20673;48.980;8.138;2023-07-24T07:24:35;12.23;;;9.83;;
33993;SDS011;20673;48.980;8.138;2023-07-24T07:27:01;13.77;;;9.30;;
33993;SDS011;20673;48.980;8.138;2023-07-24T07:29:27;15.90;;;10.77;;
33993;SDS011;20673;48.980;8.138;2023-07-24T07:31:53;12.57;;;9.47;;
33993;SDS011;20673;48.980;8.138;2023-07-24T07:34:19;17.52;;;10.58;;
33993;SDS011;20673;48.980;8.138;2023-07-24T07:36:45;15.10;;;9.93;;
33993;SDS011;20673;48.980;8.138;2023-07-24T07:39:11;15.30;;;10.00;;
33993;SDS011;20673;48.980;8.138;2023-07-24T07:41:37;18.13;;;11.03;;
33993;SDS011;20673;48.980;8.138;2023-07-24T07:44:03;11.00;;;8.93;;
33993;SDS011;20673;48.980;8.138;2023-07-24T07:46:30;13.78;;;9.58;;
33993;SDS011;20673;48.980;8.138;2023-07-24T07:48:56;14.98;;;9.33;;
33993;SDS011;20673;48.980;8.138;2023-07-24T07:51:22;13.53;;;9.67;;
33993;SDS011;20673;48.980;8.138;2023-07-24T07:53:50;15.72;;;9.43;;
33993;SDS011;20673;48.980;8.138;2023-07-24T07:56:16;12.45;;;9.33;;
33993;SDS011;20673;48.980;8.138;2023-07-24T07:58:42;15.45;;;10.25;;
33993;SDS011;20673;48.980;8.138;2023-07-24T08:01:08;15.83;;;10.57;;
33993;SDS011;20673;48.980;8.138;2023-07-24T08:03:34;14.60;;;9.88;;
33993;SDS011;20673;48.980;8.138;2023-07-24T08:06:00;12.53;;;8.75;;
33993;SDS011;20673;48.980;8.138;2023-07-24T08:08:27;17.70;;;10.20;;
33993;SDS011;20673;48.980;8.138;2023-07-24T08:10:53;14.28;;;10.10;;
33993;SDS011;20673;48.980;8.138;2023-07-24T08:13:19;14.70;;;9.73;;
33993;SDS011;20673;48.980;8.138;2023-07-24T08:15:45;17.00;;;9.75;;
33993;SDS011;20673;48.980;8.138;2023-07-24T08:18:11;14.43;;;9.15;;
33993;SDS011;20673;48.980;8.138;2023-07-24T08:20:38;15.48;;;9.60;;
33993;SDS011;20673;48.980;8.138;2023-07-24T08:23:06;12.80;;;9.20;;
33993;SDS011;20673;48.980;8.138;2023-07-24T08:25:32;12.82;;;9.03;;
33993;SDS011;20673;48.980;8.138;2023-07-24T08:27:58;14.43;;;9.18;;
33993;SDS011;20673;48.980;8.138;2023-07-24T08:30:24;13.58;;;9.90;;
33993;SDS011;20673;48.980;8.138;2023-07-24T08:32:50;11.08;;;7.87;;
33993;SDS011;20673;48.980;8.138;2023-07-24T08:35:17;11.93;;;8.35;;
33993;SDS011;20673;48.980;8.138;2023-07-24T08:37:43;10.60;;;7.97;;
33993;SDS011;20673;48.980;8.138;2023-07-24T08:40:12;11.57;;;7.75;;
33993;SDS011;20673;48.980;8.138;2023-07-24T08:42:42;11.00;;;8.05;;
33993;SDS011;20673;48.980;8.138;2023-07-24T08:45:12;11.45;;;7.75;;
33993;SDS011;20673;48.980;8.138;2023-07-24T08:47:44;12.43;;;8.03;;
33993;SDS011;20673;48.980;8.138;2023-07-24T08:50:11;13.50;;;8.50;;
33993;SDS011;20673;48.980;8.138;2023-07-24T08:52:40;11.88;;;8.40;;
33993;SDS011;20673;48.980;8.138;2023-07-24T08:55:08;10.70;;;7.78;;
33993;SDS011;20673;48.980;8.138;2023-07-24T08:57:35;11.97;;;8.13;;
33993;SDS011;20673;48.980;8.138;2023-07-24T09:00:02;15.10;;;7.90;;
33993;SDS011;20673;48.980;8.138;2023-07-24T09:02:30;13.13;;;7.95;;
33993;SDS011;20673;48.980;8.138;2023-07-24T09:04:58;12.35;;;7.40;;
33993;SDS011;20673;48.980;8.138;2023-07-24T09:07:24;10.38;;;7.33;;
33993;SDS011;20673;48.980;8.138;2023-07-24T09:09:50;12.25;;;7.75;;
33993;SDS011;20673;48.980;8.138;2023-07-24T09:12:18;10.72;;;7.53;;
33993;SDS011;20673;48.980;8.138;2023-07-24T09:14:44;12.70;;;8.00;;
33993;SDS011;20673;48.980;8.138;2023-07-24T09:17:11;10.20;;;7.78;;
33993;SDS011;20673;48.980;8.138;2023-07-24T09:19:37;12.43;;;7.45;;
33993;SDS011;20673;48.980;8.138;2023-07-24T09:22:07;11.45;;;6.75;;
33993;SDS011;20673;48.980;8.138;2023-07-24T09:24:57;9.25;;;7.20;;
33993;SDS011;20673;48.980;8.138;2023-07-24T09:27:26;9.88;;;7.42;;
33993;SDS011;20673;48.980;8.138;2023-07-24T09:29:58;10.98;;;7.72;;
33993;SDS011;20673;48.980;8.138;2023-07-24T09:32:27;10.53;;;7.58;;
33993;SDS011;20673;48.980;8.138;2023-07-24T09:34:52;9.68;;;6.72;;
33993;SDS011;20673;48.980;8.138;2023-07-24T09:37:23;9.73;;;7.53;;
33993;SDS011;20673;48.980;8.138;2023-07-24T09:39:56;9.78;;;7.17;;
33993;SDS011;20673;48.980;8.138;2023-07-24T09:42:29;9.58;;;7.60;;
33993;SDS011;20673;48.980;8.138;2023-07-24T09:45:03;10.78;;;7.37;;
33993;SDS011;20673;48.980;8.138;2023-07-24T09:47:30;10.45;;;7.37;;
33993;SDS011;20673;48.980;8.138;2023-07-24T09:49:57;11.22;;;7.67;;
33993;SDS011;20673;48.980;8.138;2023-07-24T09:52:26;12.35;;;7.70;;
33993;SDS011;20673;48.980;8.138;2023-07-24T09:57:45;9.85;;;7.08;;
33993;SDS011;20673;48.980;8.138;2023-07-24T10:00:15;9.68;;;6.97;;
33993;SDS011;20673;48.980;8.138;2023-07-24T10:02:41;10.10;;;7.42;;
33993;SDS011;20673;48.980;8.138;2023-07-24T10:05:08;11.08;;;7.35;;
33993;SDS011;20673;48.980;8.138;2023-07-24T10:07:36;10.48;;;7.50;;
33993;SDS011;20673;48.980;8.138;2023-07-24T10:10:03;10.50;;;7.30;;
33993;SDS011;20673;48.980;8.138;2023-07-24T10:12:31;11.15;;;7.42;;
33993;SDS011;20673;48.980;8.138;2023-07-24T10:14:59;11.18;;;8.28;;
33993;SDS011;20673;48.980;8.138;2023-07-24T10:17:36;11.15;;;7.67;;
33993;SDS011;20673;48.980;8.138;2023-07-24T10:20:15;10.45;;;7.15;;
33993;SDS011;20673;48.980;8.138;2023-07-24T10:22:40;11.83;;;7.83;;
33993;SDS011;20673;48.980;8.138;2023-07-24T10:25:09;9.60;;;7.42;;
33993;SDS011;20673;48.980;8.138;2023-07-24T10:27:39;11.93;;;7.55;;
33993;SDS011;20673;48.980;8.138;2023-07-24T10:30:14;11.68;;;7.67;;
33993;SDS011;20673;48.980;8.138;2023-07-24T10:32:45;8.55;;;7.37;;
33993;SDS011;20673;48.980;8.138;2023-07-24T10:35:13;10.53;;;7.50;;
33993;SDS011;20673;48.980;8.138;2023-07-24T10:37:39;9.58;;;7.47;;
33993;SDS011;20673;48.980;8.138;2023-07-24T10:40:05;10.75;;;7.20;;
33993;SDS011;20673;48.980;8.138;2023-07-24T10:42:33;12.18;;;7.95;;
33993;SDS011;20673;48.980;8.138;2023-07-24T10:45:05;8.70;;;7.37;;
33993;SDS011;20673;48.980;8.138;2023-07-24T10:47:33;11.28;;;6.85;;
33993;SDS011;20673;48.980;8.138;2023-07-24T10:50:00;10.75;;;7.72;;
33993;SDS011;20673;48.980;8.138;2023-07-24T10:52:29;11.80;;;6.72;;
33993;SDS011;20673;48.980;8.138;2023-07-24T10:55:01;8.83;;;7.05;;
33993;SDS011;20673;48.980;8.138;2023-07-24T10:57:29;11.43;;;7.58;;
33993;SDS011;20673;48.980;8.138;2023-07-24T10:59:56;10.63;;;6.72;;
33993;SDS011;20673;48.980;8.138;2023-07-24T11:02:23;9.10;;;7.42;;
33993;SDS011;20673;48.980;8.138;2023-07-24T11:04:49;10.08;;;6.45;;
33993;SDS011;20673;48.980;8.138;2023-07-24T11:07:15;10.03;;;6.80;;
33993;SDS011;20673;48.980;8.138;2023-07-24T11:09:41;11.90;;;6.70;;
33993;SDS011;20673;48.980;8.138;2023-07-24T11:12:10;9.40;;;7.33;;
33993;SDS011;20673;48.980;8.138;2023-07-24T11:14:47;8.63;;;6.78;;
33993;SDS011;20673;48.980;8.138;2023-07-24T11:17:21;10.58;;;7.35;;
33993;SDS011;20673;48.980;8.138;2023-07-24T11:19:47;9.70;;;6.28;;
33993;SDS011;20673;48.980;8.138;2023-07-24T11:22:14;9.10;;;6.05;;
33993;SDS011;20673;48.980;8.138;2023-07-24T11:24:46;9.10;;;6.58;;
33993;SDS011;20673;48.980;8.138;2023-07-24T11:27:13;9.08;;;6.72;;
33993;SDS011;20673;48.980;8.138;2023-07-24T11:29:46;9.58;;;6.10;;
33993;SDS011;20673;48.980;8.138;2023-07-24T11:32:19;9.70;;;6.50;;
33993;SDS011;20673;48.980;8.138;2023-07-24T11:34:46;7.87;;;6.25;;
33993;SDS011;20673;48.980;8.138;2023-07-24T11:37:15;8.15;;;6.00;;
33993;SDS011;20673;48.980;8.138;2023-07-24T11:39:55;8.38;;;6.62;;
33993;SDS011;20673;48.980;8.138;2023-07-24T11:42:39;6.85;;;5.95;;
33993;SDS011;20673;48.980;8.138;2023-07-24T11:45:07;8.95;;;6.95;;
33993;SDS011;20673;48.980;8.138;2023-07-24T11:47:46;11.35;;;6.92;;
33993;SDS011;20673;48.980;8.138;2023-07-24T11:50:15;8.08;;;6.12;;
33993;SDS011;20673;48.980;8.138;2023-07-24T11:52:44;8.75;;;6.22;;
33993;SDS011;20673;48.980;8.138;2023-07-24T11:55:16;11.73;;;7.00;;
33993;SDS011;20673;48.980;8.138;2023-07-24T11:57:58;7.97;;;6.15;;
33993;SDS011;20673;48.980;8.138;2023-07-24T12:00:26;8.88;;;6.50;;
33993;SDS011;20673;48.980;8.138;2023-07-24T12:02:59;8.90;;;5.90;;
33993;SDS011;20673;48.980;8.138;2023-07-24T12:05:26;8.33;;;6.15;;
33993;SDS011;20673;48.980;8.138;2023-07-24T12:07:53;7.95;;;5.53;;
33993;SDS011;20673;48.980;8.138;2023-07-24T12:10:27;8.65;;;6.20;;
33993;SDS011;20673;48.980;8.138;2023-07-24T12:12:54;8.28;;;5.85;;
33993;SDS011;20673;48.980;8.138;2023-07-24T12:15:25;6.28;;;5.20;;
33993;SDS011;20673;48.980;8.138;2023-07-24T12:17:52;6.87;;;5.62;;
33993;SDS011;20673;48.980;8.138;2023-07-24T12:20:18;7.92;;;5.95;;
33993;SDS011;20673;48.980;8.138;2023-07-24T12:22:44;8.30;;;6.22;;
33993;SDS011;20673;48.980;8.138;2023-07-24T12:25:11;7.62;;;6.15;;
33993;SDS011;20673;48.980;8.138;2023-07-24T12:27:37;7.95;;;5.70;;
33993;SDS011;20673;48.980;8.138;2023-07-24T12:30:05;9.23;;;5.97;;
33993;SDS011;20673;48.980;8.138;2023-07-24T12:32:32;7.70;;;5.70;;
33993;SDS011;20673;48.980;8.138;2023-07-24T12:34:58;7.12;;;6.17;;
33993;SDS011;20673;48.980;8.138;2023-07-24T12:37:24;9.20;;;5.78;;
33993;SDS011;20673;48.980;8.138;2023-07-24T12:39:51;7.50;;;5.40;;
33993;SDS011;20673;48.980;8.138;2023-07-24T12:42:17;8.48;;;5.67;;
33993;SDS011;20673;48.980;8.138;2023-07-24T12:44:43;10.53;;;5.37;;
33993;SDS011;20673;48.980;8.138;2023-07-24T12:47:10;8.43;;;5.72;;
33993;SDS011;20673;48.980;8.138;2023-07-24T12:49:37;7.22;;;5.65;;
33993;SDS011;20673;48.980;8.138;2023-07-24T12:52:03;9.23;;;5.70;;
33993;SDS011;20673;48.980;8.138;2023-07-24T12:54:31;7.50;;;5.33;;
33993;SDS011;20673;48.980;8.138;2023-07-24T12:56:57;7.53;;;5.78;;
33993;SDS011;20673;48.980;8.138;2023-07-24T12:59:23;6.78;;;5.40;;
33993;SDS011;20673;48.980;8.138;2023-07-24T13:01:50;7.20;;;5.83;;
33993;SDS011;20673;48.980;8.138;2023-07-24T13:04:16;6.58;;;5.30;;
33993;SDS011;20673;48.980;8.138;2023-07-24T13:06:42;7.33;;;5.75;;
33993;SDS011;20673;48.980;8.138;2023-07-24T13:09:09;9.38;;;6.47;;
33993;SDS011;20673;48.980;8.138;2023-07-24T13:11:35;6.87;;;5.62;;
33993;SDS011;20673;48.980;8.138;2023-07-24T13:14:01;8.23;;;5.85;;
33993;SDS011;20673;48.980;8.138;2023-07-24T13:16:27;8.03;;;5.80;;
33993;SDS011;20673;48.980;8.138;2023-07-24T13:18:53;8.65;;;5.60;;
33993;SDS011;20673;48.980;8.138;2023-07-24T13:21:20;6.60;;;4.95;;
33993;SDS011;20673;48.980;8.138;2023-07-24T13:23:46;7.00;;;5.20;;
33993;SDS011;20673;48.980;8.138;2023-07-24T13:26:13;7.40;;;5.40;;
33993;SDS011;20673;48.980;8.138;2023-07-24T13:28:40;7.30;;;5.50;;
33993;SDS011;20673;48.980;8.138;2023-07-24T13:33:43;8.23;;;5.55;;
33993;SDS011;20673;48.980;8.138;2023-07-24T13:36:09;6.20;;;5.08;;
33993;SDS011;20673;48.980;8.138;2023-07-24T13:38:35;6.30;;;5.70;;
33993;SDS011;20673;48.980;8.138;2023-07-24T13:41:02;6.53;;;5.08;;
33993;SDS011;20673;48.980;8.138;2023-07-24T13:43:30;7.03;;;5.90;;
33993;SDS011;20673;48.980;8.138;2023-07-24T13:45:57;8.60;;;5.80;;
33993;SDS011;20673;48.980;8.138;2023-07-24T13:48:24;10.13;;;6.12;;
33993;SDS011;20673;48.980;8.138;2023-07-24T13:50:52;6.42;;;4.95;;
33993;SDS011;20673;48.980;8.138;2023-07-24T13:53:18;8.80;;;5.75;;
33993;SDS011;20673;48.980;8.138;2023-07-24T13:55:45;7.35;;;5.58;;
33993;SDS011;20673;48.980;8.138;2023-07-24T13:58:11;8.80;;;5.58;;
33993;SDS011;20673;48.980;8.138;2023-07-24T14:00:37;8.90;;;5.60;;
33993;SDS011;20673;48.980;8.138;2023-07-24T14:03:03;8.00;;;5.35;;
33993;SDS011;20673;48.980;8.138;2023-07-24T14:05:30;13.90;;;6.55;;
33993;SDS011;20673;48.980;8.138;2023-07-24T14:07:56;9.03;;;5.87;;
33993;SDS011;20673;48.980;8.138;2023-07-24T14:10:22;7.55;;;5.95;;
33993;SDS011;20673;48.980;8.138;2023-07-24T14:12:48;7.08;;;5.70;;
33993;SDS011;20673;48.980;8.138;2023-07-24T14:15:14;8.68;;;5.55;;
33993;SDS011;20673;48.980;8.138;2023-07-24T14:17:41;7.75;;;5.47;;
33993;SDS011;20673;48.980;8.138;2023-07-24T14:20:08;8.13;;;5.17;;
33993;SDS011;20673;48.980;8.138;2023-07-24T14:22:35;9.85;;;5.10;;
33993;SDS011;20673;48.980;8.138;2023-07-24T14:25:01;7.35;;;5.22;;
33993;SDS011;20673;48.980;8.138;2023-07-24T14:27:27;7.05;;;4.75;;
33993;SDS011;20673;48.980;8.138;2023-07-24T14:29:53;6.62;;;5.37;;
33993;SDS011;20673;48.980;8.138;2023-07-24T14:32:19;9.25;;;5.47;;
33993;SDS011;20673;48.980;8.138;2023-07-24T14:34:49;6.80;;;5.35;;
33993;SDS011;20673;48.980;8.138;2023-07-24T14:37:16;7.83;;;5.22;;
33993;SDS011;20673;48.980;8.138;2023-07-24T14:39:42;6.60;;;4.55;;
33993;SDS011;20673;48.980;8.138;2023-07-24T14:42:10;7.85;;;5.05;;
33993;SDS011;20673;48.980;8.138;2023-07-24T14:44:37;13.15;;;6.67;;
33993;SDS011;20673;48.980;8.138;2023-07-24T14:47:04;14.95;;;7.33;;
33993;SDS011;20673;48.980;8.138;2023-07-24T14:49:30;10.00;;;6.08;;